Time;durP1;ratioP1;P1;durP2;ratioP2;P2;SDS_P1;SDS_P2;PMS_P1;PMS_P2;Temp;Humidity;BMP_temperature;BMP_pressure;BME280_temperature;BME280_humidity;BME280_pressure;Samples;Min_cycle;Max_cycle;Signal;HPM_P1;HPM_P2
2022/08/18 00:02:16;;;;;;;5.37;3.55;;;;;;;24.38;45.83;99424.94;4377065;32;32606;-82
2022/08/18 00:04:44;;;;;;;;;;;;;;;23.91;47.99;99418.66;4364245;32;33576;-81
2022/08/18 00:07:20;;;;;;;6.80;3.78;;;;;;;23.86;48.61;99420.50;4376158;32;34043;-82
2022/08/18 00:09:48;;;;;;;8.45;3.65;;;;;;;23.05;50.10;99425.12;4383215;32;33441;-82
2022/08/18 00:12:23;;;;;;;6.70;3.90;;;;;;;23.51;48.56;99413.94;4377310;32;33562;-82
2022/08/18 00:14:51;;;;;;;7.40;3.53;;;;;;;23.53;48.48;99417.44;4377547;32;34699;-81
2022/08/18 00:17:19;;;;;;;7.07;3.45;;;;;;;23.20;49.19;99409.06;4363217;32;33761;-81
2022/08/18 00:19:47;;;;;;;6.82;3.67;;;;;;;22.83;50.16;99412.13;4377295;32;33617;-82
2022/08/18 00:22:18;;;;;;;7.50;3.70;;;;;;;22.99;49.76;99412.81;4377824;32;34284;-82
2022/08/18 00:24:51;;;;;;;8.15;3.83;;;;;;;22.99;49.45;99409.31;4366460;32;34074;-82
2022/08/18 00:27:25;;;;;;;7.80;3.60;;;;;;;23.08;49.34;99411.84;4376506;32;34532;-81
2022/08/18 00:29:58;;;;;;;6.68;3.90;;;;;;;23.69;47.63;99408.38;4377520;32;33510;-82
2022/08/18 00:32:32;;;;;;;8.40;3.90;;;;;;;23.91;46.98;99403.69;4376728;32;34336;-82
2022/08/18 00:35:17;;;;;;;7.22;3.58;;;;;;;24.13;46.68;99408.59;4375293;32;33845;-82
2022/08/18 00:37:45;;;;;;;6.07;3.65;;;;;;;24.04;46.94;99408.75;4377622;32;33741;-82
2022/08/18 00:40:19;;;;;;;6.60;3.42;;;;;;;24.03;47.11;99407.88;4376142;32;33735;-81
2022/08/18 00:42:51;;;;;;;4.80;3.37;;;;;;;23.53;48.16;99404.22;4377185;32;32215;-82
2022/08/18 00:45:24;;;;;;;7.40;3.80;;;;;;;23.29;49.21;99416.84;4377431;32;33838;-81
2022/08/18 00:47:52;;;;;;;7.60;3.67;;;;;;;23.03;50.21;99416.34;4376924;32;32598;-82
2022/08/18 00:50:59;;;;;;;6.18;3.67;;;;;;;23.44;49.26;99417.56;4376766;32;33630;-82
2022/08/18 00:53:32;;;;;;;7.18;3.90;;;;;;;22.64;50.91;99418.47;4364288;32;34526;-81
2022/08/18 00:56:05;;;;;;;5.97;3.62;;;;;;;22.64;50.99;99423.75;4360619;32;33995;-81
2022/08/18 00:58:49;;;;;;;7.30;3.67;;;;;;;22.55;51.64;99427.38;4377337;32;34228;-81
2022/08/18 01:01:22;;;;;;;5.95;3.70;;;;;;;22.54;51.89;99423.88;4362633;32;33634;-81
2022/08/18 01:03:53;;;;;;;5.65;3.65;;;;;;;22.08;53.35;99429.53;4375388;32;34486;-81
2022/08/18 01:06:38;;;;;;;5.47;3.90;;;;;;;22.19;52.98;99422.41;4378100;32;33932;-81
2022/08/18 01:09:07;;;;;;;7.07;4.32;;;;;;;22.31;52.89;99420.56;4383988;32;34418;-82
2022/08/18 01:11:37;;;;;;;7.03;4.07;;;;;;;22.80;51.61;99427.13;4374384;32;33022;-81
2022/08/18 01:14:07;;;;;;;6.53;3.60;;;;;;;22.69;51.86;99432.50;4376324;32;34279;-81
2022/08/18 01:22:21;;;;;;;8.70;3.87;;;;;;;24.11;47.64;99432.44;4358475;32;33782;-82
2022/08/18 01:27:37;;;;;;;6.43;4.05;;;;;;;24.32;46.62;99440.94;4363637;32;33753;-81
2022/08/18 01:30:10;;;;;;;6.00;3.75;;;;;;;24.01;47.46;99441.44;4374272;32;34822;-81
2022/08/18 01:32:40;;;;;;;6.20;4.07;;;;;;;23.68;48.18;99438.38;4362582;32;34970;-81
2022/08/18 01:35:09;;;;;;;21.08;5.10;;;;;;;23.04;50.31;99433.91;4374065;32;33768;-82
2022/08/18 01:37:37;;;;;;;7.05;4.15;;;;;;;23.20;50.25;99438.13;4362056;32;33605;-81
2022/08/18 01:40:07;;;;;;;6.62;3.65;;;;;;;23.64;49.07;99435.78;4376652;32;33785;-81
2022/08/18 01:42:55;;;;;;;6.82;4.03;;;;;;;23.69;48.82;99434.81;4376969;32;33573;-81
2022/08/18 01:45:23;;;;;;;6.40;3.97;;;;;;;23.30;50.10;99439.75;4376728;32;33864;-81
2022/08/18 01:47:51;;;;;;;7.12;4.07;;;;;;;22.65;52.10;99441.34;4369832;32;33920;-81
2022/08/18 01:50:18;;;;;;;8.35;4.40;;;;;;;23.22;50.56;99448.66;4375885;32;34217;-81
2022/08/18 01:52:46;;;;;;;5.97;3.67;;;;;;;22.60;52.43;99446.69;4378353;32;33633;-82
2022/08/18 01:55:14;;;;;;;7.80;3.62;;;;;;;23.22;50.60;99446.91;4378878;32;32464;-82
2022/08/18 01:57:43;;;;;;;7.28;3.87;;;;;;;23.70;49.71;99449.81;4378344;32;36823;-82
2022/08/18 02:00:14;;;;;;;5.70;3.78;;;;;;;23.76;49.49;99451.47;4372022;32;33498;-81
2022/08/18 02:02:42;;;;;;;7.18;3.55;;;;;;;22.88;51.65;99449.91;4365206;32;34092;-81
2022/08/18 02:05:15;;;;;;;9.38;4.50;;;;;;;23.36;50.66;99444.97;4364285;32;34500;-81
2022/08/18 02:07:43;;;;;;;8.43;4.18;;;;;;;23.38;50.41;99447.59;4362860;32;33988;-81
2022/08/18 02:10:10;;;;;;;6.75;4.25;;;;;;;23.07;51.88;99449.75;4365124;32;34102;-81
2022/08/18 02:12:43;;;;;;;7.75;4.47;;;;;;;23.63;50.50;99437.56;4366000;32;33377;-82
2022/08/18 02:15:11;;;;;;;9.68;4.45;;;;;;;23.50;50.69;99441.25;4378716;32;33713;-81
2022/08/18 02:17:41;;;;;;;8.02;4.30;;;;;;;23.98;49.57;99438.81;4378339;32;33655;-81
2022/08/18 02:20:12;;;;;;;7.87;4.80;;;;;;;22.50;53.40;99448.56;4352312;32;34703;-81
2022/08/18 02:22:40;;;;;;;9.23;4.30;;;;;;;22.27;54.73;99445.22;4364630;32;33153;-81
2022/08/18 02:25:08;;;;;;;7.55;4.40;;;;;;;21.89;56.29;99446.38;4378748;32;34547;-82
2022/08/18 02:27:36;;;;;;;8.85;4.90;;;;;;;22.53;54.31;99442.34;4378022;32;33782;-82
2022/08/18 02:30:07;;;;;;;7.45;4.82;;;;;;;21.61;57.34;99443.91;4378235;32;33785;-82
2022/08/18 02:32:35;;;;;;;11.18;4.47;;;;;;;21.48;57.73;99452.75;4364753;32;33507;-81
2022/08/18 02:35:05;;;;;;;8.73;4.60;;;;;;;21.37;58.02;99456.28;4380273;32;33527;-82
2022/08/18 02:37:39;;;;;;;7.62;4.80;;;;;;;22.03;56.46;99452.41;4378119;32;33541;-82
2022/08/18 02:40:11;;;;;;;6.95;4.45;;;;;;;22.06;56.28;99457.69;4378587;32;34697;-81
2022/08/18 02:42:43;;;;;;;8.43;4.65;;;;;;;22.90;53.70;99453.41;4375044;32;34178;-81
2022/08/18 02:45:12;;;;;;;7.28;4.30;;;;;;;23.30;52.36;99452.97;4377805;32;33715;-82
2022/08/18 02:47:40;;;;;;;7.75;4.45;;;;;;;23.30;52.70;99458.25;4376216;32;34657;-81
2022/08/18 02:50:10;;;;;;;8.38;4.87;;;;;;;22.95;53.92;99456.88;4377743;32;34922;-81
2022/08/18 02:52:38;;;;;;;9.52;5.00;;;;;;;22.02;56.99;99455.97;4378282;32;33533;-82
2022/08/18 02:55:07;;;;;;;11.30;5.30;;;;;;;21.77;57.75;99458.75;4377717;32;33734;-82
2022/08/18 02:57:35;;;;;;;8.40;4.65;;;;;;;22.12;57.03;99460.25;4364585;32;34016;-82
2022/08/18 03:00:03;;;;;;;7.22;4.60;;;;;;;22.62;55.13;99460.75;4378234;32;34093;-80
2022/08/18 03:02:31;;;;;;;7.68;4.40;;;;;;;22.78;54.82;99474.66;4377608;32;34292;-82
2022/08/18 03:04:58;;;;;;;7.90;4.93;;;;;;;21.88;57.60;99465.69;4378309;32;33805;-81
2022/08/18 03:07:26;;;;;;;8.70;5.00;;;;;;;21.72;58.27;99468.44;4364698;32;33438;-82
2022/08/18 03:09:53;;;;;;;7.35;4.70;;;;;;;21.29;59.32;99479.16;4378338;32;34190;-82
2022/08/18 03:12:21;;;;;;;8.95;5.70;;;;;;;21.00;60.36;99480.13;4378867;32;34267;-81
2022/08/18 03:14:49;;;;;;;8.27;5.55;;;;;;;21.20;59.96;99473.94;4377947;32;33970;-81
2022/08/18 03:17:16;;;;;;;9.40;6.22;;;;;;;21.41;59.67;99478.22;4377931;32;34050;-81
2022/08/18 03:19:44;;;;;;;8.73;5.30;;;;;;;21.84;58.56;99477.16;4377598;32;34142;-81
2022/08/18 03:22:14;;;;;;;11.18;5.20;;;;;;;21.89;57.98;99480.66;4378087;32;32677;-81
2022/08/18 03:24:56;;;;;;;8.27;4.80;;;;;;;22.21;56.56;99476.91;4378382;32;33928;-81
2022/08/18 03:27:25;;;;;;;10.95;5.20;;;;;;;22.66;55.17;99474.81;4363346;32;34170;-82
2022/08/18 03:29:52;;;;;;;9.80;4.90;;;;;;;22.74;54.95;99478.22;4378174;32;33603;-82
2022/08/18 03:32:20;;;;;;;7.75;4.55;;;;;;;23.00;54.07;99466.50;4378062;32;32225;-81
2022/08/18 03:34:47;;;;;;;7.80;4.45;;;;;;;23.05;53.49;99472.66;4377833;32;34333;-82
2022/08/18 03:37:15;;;;;;;9.45;5.32;;;;;;;22.65;54.69;99467.75;4377572;32;34596;-81
2022/08/18 03:39:42;;;;;;;8.07;5.35;;;;;;;21.86;57.54;99470.13;4361150;32;34623;-81
2022/08/18 03:42:10;;;;;;;13.68;5.75;;;;;;;22.09;57.20;99468.19;4376205;32;34347;-82
2022/08/18 03:44:38;;;;;;;8.77;5.90;;;;;;;21.93;58.13;99469.19;4372440;32;33758;-81
2022/08/18 03:47:09;;;;;;;11.73;6.03;;;;;;;22.29;57.21;99469.81;4373723;32;34413;-82
2022/08/18 03:49:38;;;;;;;7.97;5.53;;;;;;;21.64;59.29;99472.88;4344414;32;33852;-81
2022/08/18 03:52:09;;;;;;;10.60;5.20;;;;;;;21.68;60.16;99471.09;4357741;32;33450;-82
2022/08/18 03:54:37;;;;;;;11.15;6.43;;;;;;;22.37;57.36;99470.66;4377004;32;33006;-82
2022/08/18 03:57:10;;;;;;;10.30;6.12;;;;;;;22.54;56.59;99470.47;4373897;32;34031;-82
2022/08/18 03:59:55;;;;;;;10.02;6.05;;;;;;;21.85;58.72;99468.37;4376885;32;34936;-82
2022/08/18 04:02:22;;;;;;;13.80;6.22;;;;;;;21.58;59.91;99478.19;4377377;32;34291;-81
2022/08/18 04:04:50;;;;;;;11.73;5.95;;;;;;;21.69;59.75;99484.28;4377206;32;33848;-82
2022/08/18 04:07:18;;;;;;;9.38;6.65;;;;;;;21.79;59.14;99464.88;4376601;32;33576;-82
2022/08/18 04:09:45;;;;;;;11.77;6.93;;;;;;;22.39;57.42;99471.53;4374991;32;34104;-82
2022/08/18 04:12:14;;;;;;;12.65;6.75;;;;;;;22.60;57.06;99473.09;4377054;32;33834;-82
2022/08/18 04:14:46;;;;;;;13.40;7.15;;;;;;;22.67;56.87;99473.91;4362228;32;34383;-81
2022/08/18 04:17:22;;;;;;;11.15;6.70;;;;;;;23.11;55.16;99473.44;4362815;32;34478;-82
2022/08/18 04:19:51;;;;;;;11.23;6.78;;;;;;;22.19;58.18;99475.16;4376902;32;34861;-82
2022/08/18 04:22:19;;;;;;;10.05;6.25;;;;;;;22.72;56.89;99466.81;4375582;32;33694;-81
2022/08/18 04:24:49;;;;;;;10.50;6.37;;;;;;;23.20;55.36;99469.84;4376700;32;33595;-82
2022/08/18 04:27:18;;;;;;;9.50;6.80;;;;;;;23.49;54.61;99473.91;4377715;32;33366;-81
2022/08/18 04:29:46;;;;;;;11.85;6.65;;;;;;;23.31;55.26;99469.69;4377247;32;34271;-81
2022/08/18 04:32:14;;;;;;;9.68;6.68;;;;;;;23.20;55.50;99471.59;4376278;32;34408;-81
2022/08/18 04:34:41;;;;;;;11.77;7.85;;;;;;;22.56;57.81;99474.87;4377177;32;34522;-81
2022/08/18 04:37:09;;;;;;;12.63;7.60;;;;;;;22.84;57.43;99466.69;4375648;32;33765;-81
2022/08/18 04:39:37;;;;;;;14.52;8.45;;;;;;;22.97;56.78;99465.66;4371997;32;33667;-81
2022/08/18 04:42:04;;;;;;;15.23;7.68;;;;;;;23.11;56.59;99462.03;4361110;32;32712;-81
2022/08/18 04:44:34;;;;;;;12.98;8.00;;;;;;;23.13;56.67;99469.03;4374877;32;33774;-81
2022/08/18 04:47:01;;;;;;;14.52;8.20;;;;;;;22.90;57.67;99476.31;4376915;32;34665;-81
2022/08/18 04:49:30;;;;;;;15.48;7.85;;;;;;;22.29;60.33;99472.47;4369444;32;34812;-82
2022/08/18 04:55:05;;;;;;;16.98;8.65;;;;;;;23.29;57.45;99482.06;4359514;32;34252;-81
2022/08/18 04:57:33;;;;;;;12.93;8.23;;;;;;;23.17;57.90;99483.09;4377635;32;33934;-81
2022/08/18 05:00:04;;;;;;;15.02;8.40;;;;;;;23.18;58.20;99484.84;4375431;32;34846;-81
2022/08/18 05:02:32;;;;;;;15.63;8.02;;;;;;;23.61;56.92;99476.38;4376903;32;32714;-82
2022/08/18 05:05:03;;;;;;;11.95;7.97;;;;;;;23.48;57.52;99472.12;4376486;32;33901;-82
2022/08/18 05:07:31;;;;;;;11.63;8.43;;;;;;;23.91;56.35;99474.19;4376237;32;33584;-81
2022/08/18 05:09:58;;;;;;;13.18;8.05;;;;;;;23.83;56.77;99469.03;4373589;32;33981;-81
2022/08/18 05:12:27;;;;;;;13.43;9.50;;;;;;;23.96;56.57;99461.78;4375254;32;33970;-82
2022/08/18 05:14:57;;;;;;;12.93;9.25;;;;;;;24.19;56.36;99461.44;4376929;32;33464;-81
2022/08/18 05:17:27;;;;;;;14.45;8.95;;;;;;;24.16;57.55;99457.94;4375534;32;33021;-82
2022/08/18 05:19:58;;;;;;;15.98;9.52;;;;;;;24.25;58.10;99463.09;4375782;32;34835;-78
2022/08/18 05:22:28;;;;;;;11.12;8.95;;;;;;;24.24;59.62;99458.69;4375777;32;35687;-77
2022/08/18 05:24:58;;;;;;;14.82;9.32;;;;;;;24.56;58.26;99459.97;4376000;32;32954;-77
2022/08/18 05:27:43;;;;;;;14.90;9.98;;;;;;;24.65;57.49;99475.69;4372888;32;34832;-78
2022/08/18 05:30:13;;;;;;;11.68;8.90;;;;;;;24.78;58.06;99477.19;4375329;32;34223;-78
2022/08/18 05:32:45;;;;;;;15.13;9.88;;;;;;;25.20;57.19;99477.28;4368648;32;33689;-78
2022/08/18 05:35:24;;;;;;;14.15;9.43;;;;;;;24.86;57.97;99480.59;4377355;32;34365;-79
2022/08/18 05:37:57;;;;;;;15.35;9.77;;;;;;;25.22;57.04;99472.84;4378645;32;34202;-80
2022/08/18 05:40:26;;;;;;;13.35;9.43;;;;;;;25.79;56.27;99474.28;4363432;32;34011;-78
2022/08/18 05:42:54;;;;;;;14.23;9.70;;;;;;;25.50;56.13;99482.91;4377717;32;33772;-79
2022/08/18 05:45:22;;;;;;;15.57;9.18;;;;;;;25.69;56.05;99473.63;4364649;32;33985;-78
2022/08/18 05:47:56;;;;;;;12.40;9.65;;;;;;;25.77;55.74;99472.56;4364992;32;33984;-80
2022/08/18 05:50:25;;;;;;;11.75;8.75;;;;;;;26.04;54.95;99469.31;4362957;32;33056;-79
2022/08/18 05:52:57;;;;;;;16.92;9.70;;;;;;;26.22;54.12;99467.13;4363042;32;32035;-79
2022/08/18 05:58:39;;;;;;;12.02;8.85;;;;;;;26.14;54.21;99474.41;4364697;32;34552;-80
2022/08/18 06:01:14;;;;;;;11.98;9.52;;;;;;;26.43;53.07;99471.91;4376795;32;34821;-82
2022/08/18 06:03:55;;;;;;;12.27;9.25;;;;;;;26.33;53.33;99475.72;4376358;32;33931;-82
2022/08/18 06:06:25;;;;;;;13.02;9.43;;;;;;;26.58;52.89;99480.38;4360532;32;32968;-88
2022/08/18 06:09:15;;;;;;;11.60;8.52;;;;;;;27.09;52.02;99481.72;4364383;32;34061;-81
2022/08/18 06:11:43;;;;;;;13.90;9.30;;;;;;;26.92;51.95;99480.38;4366626;32;33716;-83
2022/08/18 06:14:12;;;;;;;10.80;8.13;;;;;;;26.88;51.72;99487.56;4377526;32;34198;-82
2022/08/18 06:16:55;;;;;;;10.70;8.75;;;;;;;27.17;50.80;99485.91;4365415;32;33977;-82
2022/08/18 06:19:48;;;;;;;11.60;8.45;;;;;;;27.19;50.36;99489.38;4376694;32;33907;-81
2022/08/18 06:22:29;;;;;;;14.70;8.27;;;;;;;27.28;50.45;99487.44;4374456;32;34028;-84
2022/08/18 06:25:10;;;;;;;11.43;8.75;;;;;;;27.26;50.51;99484.81;4376060;32;32266;-80
2022/08/18 06:27:50;;;;;;;11.18;8.45;;;;;;;27.28;50.10;99487.44;4365595;32;33748;-81
2022/08/18 06:30:22;;;;;;;11.18;9.07;;;;;;;27.42;49.60;99485.22;4376772;32;33934;-79
2022/08/18 06:32:59;;;;;;;13.07;9.07;;;;;;;27.41;49.83;99483.47;4384171;32;34258;-81
2022/08/18 06:35:38;;;;;;;11.12;8.32;;;;;;;27.63;49.48;99483.72;4363728;32;33556;-83
2022/08/18 06:41:07;;;;;;;10.82;8.82;;;;;;;27.60;49.29;99478.47;4375706;32;34022;-79
2022/08/18 06:44:08;;;;;;;12.73;8.65;;;;;;;27.65;49.51;99488.06;4375804;32;34231;-80
2022/08/18 06:46:59;;;;;;;11.75;8.93;;;;;;;27.72;49.25;99482.56;4362098;32;33823;-80
2022/08/18 06:49:45;;;;;;;10.73;8.30;;;;;;;27.74;49.03;99488.69;4364835;32;33675;-83
2022/08/18 06:52:25;;;;;;;10.80;8.32;;;;;;;27.79;49.16;99489.44;4362785;32;33677;-82
2022/08/18 06:54:54;;;;;;;17.40;9.43;;;;;;;28.17;48.48;99471.41;4375955;32;34482;-81
2022/08/18 06:57:33;;;;;;;14.45;8.90;;;;;;;28.20;48.35;99472.19;4373699;32;33873;-82
2022/08/18 07:00:08;;;;;;;13.95;8.90;;;;;;;28.37;48.27;99468.94;4369709;32;34659;-82
2022/08/18 07:02:59;;;;;;;12.55;9.05;;;;;;;28.07;48.90;99467.28;4373480;32;33607;-78
2022/08/18 07:05:31;;;;;;;13.73;8.60;;;;;;;28.22;48.33;99456.12;4377318;32;34063;-83
2022/08/18 07:08:09;;;;;;;14.05;8.52;;;;;;;28.52;47.96;99464.06;4363448;32;33816;-81
2022/08/18 07:10:48;;;;;;;13.00;8.95;;;;;;;28.35;48.50;99467.28;4377254;32;34842;-82
2022/08/18 07:13:27;;;;;;;13.00;8.85;;;;;;;28.33;48.70;99462.00;4375315;32;34170;-83
2022/08/18 07:16:14;;;;;;;15.60;9.10;;;;;;;29.13;46.86;99472.59;4376915;32;34223;-80
2022/08/18 07:18:47;;;;;;;14.43;8.57;;;;;;;29.27;46.42;99471.22;4377846;32;34308;-79
2022/08/18 07:21:29;;;;;;;12.73;9.10;;;;;;;29.78;45.13;99464.81;4378068;32;34609;-81
2022/08/18 07:24:01;;;;;;;12.57;8.77;;;;;;;29.91;44.50;99459.87;4378595;32;34358;-81
2022/08/18 07:27:03;;;;;;;10.18;7.62;;;;;;;30.97;42.40;99458.13;4366980;32;34035;-80
2022/08/18 07:29:34;;;;;;;10.90;7.35;;;;;;;31.75;40.23;99459.00;4377337;32;32291;-82
2022/08/18 07:32:09;;;;;;;10.00;7.05;;;;;;;32.65;38.57;99459.03;4377414;32;33922;-79
2022/08/18 07:34:52;;;;;;;10.38;7.35;;;;;;;33.99;35.88;99459.84;4359616;32;34728;-80
2022/08/18 07:37:32;;;;;;;15.02;6.95;;;;;;;35.06;32.74;99451.78;4359642;32;33880;-81
2022/08/18 07:40:44;;;;;;;14.75;7.30;;;;;;;36.14;30.95;99440.38;4369587;32;34428;-81
2022/08/18 07:43:17;;;;;;;11.25;7.05;;;;;;;37.49;28.89;99446.31;4354285;32;34347;-80
2022/08/18 07:45:45;;;;;;;;;;;;;;;36.98;29.00;99457.16;4352939;32;34494;-81
2022/08/18 07:48:16;;;;;;;7.47;6.37;;;;;;;36.76;29.25;99447.00;4374842;32;35094;-83
2022/08/18 07:51:14;;;;;;;10.68;7.03;;;;;;;37.56;28.12;99450.31;4364126;32;33572;-80
2022/08/18 07:53:58;;;;;;;11.70;7.07;;;;;;;38.55;26.30;99454.69;4364518;32;34940;-81
2022/08/18 07:56:38;;;;;;;9.88;6.90;;;;;;;38.62;26.35;99470.47;4368836;32;33905;-81
2022/08/18 07:59:18;;;;;;;10.32;6.60;;;;;;;39.49;25.19;99473.59;4377824;32;34167;-81
2022/08/18 08:02:23;;;;;;;11.38;6.95;;;;;;;40.30;24.08;99468.72;4377882;32;33275;-80
2022/08/18 08:05:35;;;;;;;12.80;6.32;;;;;;;40.26;24.15;99473.56;4377066;32;33222;-81
2022/08/18 08:08:16;;;;;;;10.13;6.68;;;;;;;40.78;23.54;99481.88;4343869;32;33407;-81
2022/08/18 08:11:10;;;;;;;9.13;6.80;;;;;;;40.80;23.28;99487.12;4378876;32;32980;-80
2022/08/18 08:13:52;;;;;;;8.25;5.80;;;;;;;40.72;22.99;99490.53;4376421;32;34318;-82
2022/08/18 08:16:52;;;;;;;13.23;7.05;;;;;;;40.95;23.08;99499.38;4376620;32;33914;-84
2022/08/18 08:19:57;;;;;;;11.38;7.03;;;;;;;41.39;22.83;99494.66;4373290;32;34805;-81
2022/08/18 08:22:48;;;;;;;9.50;6.40;;;;;;;40.51;23.47;99497.75;4377535;32;32687;-80
2022/08/18 08:26:03;;;;;;;9.52;6.65;;;;;;;40.86;22.91;99503.78;4376943;32;33361;-82
2022/08/18 08:28:43;;;;;;;10.80;6.82;;;;;;;40.59;23.54;99495.28;4330987;32;33852;-82
2022/08/18 08:31:30;;;;;;;12.35;6.72;;;;;;;39.76;24.28;99488.59;4355695;32;32357;-81
2022/08/18 08:34:32;;;;;;;8.85;5.95;;;;;;;39.81;23.59;99495.31;4377744;32;34669;-82
2022/08/18 08:37:03;;;;;;;12.15;6.30;;;;;;;40.31;23.44;99484.00;4373219;32;33558;-80
2022/08/18 08:39:36;;;;;;;9.32;6.53;;;;;;;39.89;23.81;99483.88;4373748;32;33894;-82
2022/08/18 08:42:08;;;;;;;9.55;6.00;;;;;;;39.63;24.12;99481.44;4364292;32;33945;-78
2022/08/18 08:45:03;;;;;;;8.15;6.60;;;;;;;39.30;24.70;99475.03;4366460;32;34152;-83
2022/08/18 08:47:43;;;;;;;11.90;6.37;;;;;;;40.18;23.31;99469.75;4362694;32;33712;-83
2022/08/18 08:50:19;;;;;;;9.60;6.50;;;;;;;39.92;23.27;99463.81;4365789;32;34490;-79
2022/08/18 08:52:51;;;;;;;9.90;6.75;;;;;;;39.43;24.17;99463.22;4375887;32;33860;-82
2022/08/18 08:55:26;;;;;;;8.63;6.03;;;;;;;39.93;23.40;99460.09;4377456;32;34009;-81
2022/08/18 08:57:59;;;;;;;12.15;6.32;;;;;;;38.72;24.32;99458.81;4363521;32;32713;-79
2022/08/18 09:00:28;;;;;;;8.35;6.28;;;;;;;37.95;25.73;99464.56;4377430;32;34652;-84
2022/08/18 09:03:24;;;;;;;11.52;6.25;;;;;;;38.46;25.32;99457.22;4363610;32;33545;-83
2022/08/18 09:06:19;;;;;;;9.27;6.72;;;;;;;37.66;26.38;99464.03;4374092;32;34520;-81
2022/08/18 09:09:05;;;;;;;10.50;6.18;;;;;;;37.76;26.14;99464.22;4377506;32;33529;-83
2022/08/18 09:11:45;;;;;;;9.93;6.55;;;;;;;37.07;26.96;99466.44;4373828;32;33907;-82
2022/08/18 09:14:24;;;;;;;11.20;6.60;;;;;;;37.67;26.81;99454.97;4374368;32;34450;-80
2022/08/18 09:17:24;;;;;;;11.63;6.80;;;;;;;37.49;26.84;99461.66;4367527;32;34681;-83
2022/08/18 09:20:26;;;;;;;7.57;5.62;;;;;;;37.42;26.61;99460.37;4365019;32;33722;-79
2022/08/18 09:23:18;;;;;;;10.80;7.18;;;;;;;37.17;26.32;99451.38;4352899;32;34465;-82
2022/08/18 09:25:50;;;;;;;11.82;7.30;;;;;;;37.04;27.07;99450.47;4355161;32;34683;-79
2022/08/18 09:28:27;;;;;;;10.88;6.40;;;;;;;36.95;27.30;99451.97;4358406;32;33992;-83
2022/08/18 09:31:01;;;;;;;8.02;6.25;;;;;;;37.11;27.38;99454.47;4347629;33;34299;-78
2022/08/18 09:33:33;;;;;;;;;;;;;;;37.07;27.51;99461.03;4348729;32;34419;-84
2022/08/18 09:36:42;;;;;;;11.48;6.55;;;;;;;37.21;27.25;99452.87;4346811;32;34203;-81
2022/08/18 09:42:37;;;;;;;10.00;6.82;;;;;;;37.09;27.21;99438.38;4345396;33;33385;-77
2022/08/18 09:45:31;;;;;;;8.38;5.97;;;;;;;37.31;27.09;99429.63;4345389;33;34584;-78
2022/08/18 09:48:12;;;;;;;9.23;6.10;;;;;;;37.04;26.99;99431.56;4347037;33;34644;-81
2022/08/18 09:51:14;;;;;;;8.38;6.00;;;;;;;37.11;26.59;99411.28;4336265;33;34636;-83
2022/08/18 09:53:52;;;;;;;9.68;6.30;;;;;;;37.52;26.33;99407.44;4342359;32;33050;-81
2022/08/18 09:56:48;;;;;;;11.05;6.32;;;;;;;37.21;26.98;99406.97;4345697;32;33307;-79
2022/08/18 09:59:36;;;;;;;11.82;5.18;;;;;;;37.37;26.37;99399.44;4345372;33;32976;-82
2022/08/18 10:02:06;;;;;;;8.48;6.53;;;;;;;37.66;26.05;99399.19;4344950;33;34684;-81
2022/08/18 10:04:49;;;;;;;10.40;5.72;;;;;;;38.11;25.26;99385.94;4341346;33;33523;-80
2022/08/18 10:07:37;;;;;;;8.23;5.25;;;;;;;37.93;25.32;99379.16;4346445;33;33605;-81
2022/08/18 10:10:48;;;;;;;8.82;6.15;;;;;;;37.94;25.22;99376.34;4344565;33;33290;-81
2022/08/18 10:13:46;;;;;;;10.07;5.65;;;;;;;38.50;24.76;99373.00;4348178;33;32871;-81
2022/08/18 10:16:58;;;;;;;10.20;5.68;;;;;;;38.81;23.79;99380.53;4346966;33;33571;-81
2022/08/18 10:20:15;;;;;;;7.85;5.00;;;;;;;38.37;24.17;99383.03;4343944;33;33085;-81
2022/08/18 10:22:55;;;;;;;8.13;4.80;;;;;;;38.43;23.48;99384.41;4357246;32;34606;-80
2022/08/18 10:25:40;;;;;;;9.95;4.70;;;;;;;39.00;22.87;99378.16;4348558;33;33671;-78
2022/08/18 10:28:11;;;;;;;7.53;4.75;;;;;;;38.96;23.03;99387.44;4364290;32;34237;-81
2022/08/18 10:30:39;;;;;;;7.82;4.85;;;;;;;39.16;22.80;99380.47;4363510;32;33709;-79
2022/08/18 10:33:58;;;;;;;9.43;5.37;;;;;;;39.00;23.30;99379.97;4377739;32;33864;-81
2022/08/18 10:36:44;;;;;;;8.48;4.93;;;;;;;38.26;23.44;99369.47;4377317;32;34274;-79
2022/08/18 10:39:15;;;;;;;6.28;5.03;;;;;;;39.17;22.60;99378.63;4363389;32;32920;-78
2022/08/18 10:42:09;;;;;;;7.72;4.93;;;;;;;39.37;22.45;99371.56;4375127;32;33862;-80
2022/08/18 10:44:42;;;;;;;7.93;5.05;;;;;;;39.59;21.99;99376.97;4358570;32;32723;-79
2022/08/18 10:47:23;;;;;;;7.47;5.33;;;;;;;39.71;21.93;99375.09;4363671;32;34686;-82
2022/08/18 10:50:06;;;;;;;9.02;4.57;;;;;;;39.59;22.34;99366.13;4365946;32;34301;-80
2022/08/18 10:52:40;;;;;;;8.10;4.55;;;;;;;39.23;22.34;99360.00;4362070;32;33608;-84
2022/08/18 10:55:39;;;;;;;9.02;4.20;;;;;;;39.69;22.14;99355.38;4377036;32;34788;-84
2022/08/18 10:58:41;;;;;;;6.07;3.83;;;;;;;39.70;21.33;99363.38;4376619;32;34366;-83
2022/08/18 11:01:23;;;;;;;8.48;4.10;;;;;;;38.32;22.30;99369.00;4356369;32;31947;-83
2022/08/18 11:03:58;;;;;;;7.62;4.57;;;;;;;38.48;22.74;99361.44;4375947;32;34377;-78
2022/08/18 11:06:48;;;;;;;9.45;4.90;;;;;;;38.06;22.99;99361.03;4363608;32;33956;-82
2022/08/18 11:09:27;;;;;;;7.12;4.35;;;;;;;38.41;23.16;99353.91;4369055;32;33672;-82
2022/08/18 11:11:58;;;;;;;8.52;4.00;;;;;;;39.06;22.48;99357.81;4377368;32;33531;-83
2022/08/18 11:14:50;;;;;;;7.30;4.07;;;;;;;39.32;21.73;99351.13;4377878;32;34197;-82
2022/08/18 11:17:37;;;;;;;7.72;4.80;;;;;;;39.66;21.39;99356.50;4377430;32;34526;-82
2022/08/18 11:20:10;;;;;;;11.00;4.35;;;;;;;40.02;21.45;99353.53;4377346;32;34451;-84
2022/08/18 11:22:50;;;;;;;8.90;4.60;;;;;;;40.20;21.03;99359.25;4376430;32;33474;-81
2022/08/18 11:25:23;;;;;;;7.05;4.50;;;;;;;40.16;20.82;99355.06;4362961;32;33661;-87
2022/08/18 11:27:51;;;;;;;;;;;;;;;40.36;20.71;99343.41;4377732;32;32248;-80
2022/08/18 11:30:20;;;;;;;8.63;4.05;;;;;;;40.69;20.20;99344.16;4376997;32;34866;-82
2022/08/18 11:32:59;;;;;;;7.85;3.95;;;;;;;40.60;19.85;99339.53;4365485;32;33128;-77
2022/08/18 11:35:49;;;;;;;7.30;4.10;;;;;;;40.21;20.81;99323.00;4364096;32;33526;-80
2022/08/18 11:38:20;;;;;;;6.90;4.43;;;;;;;40.25;20.48;99324.44;4363160;32;34645;-80
2022/08/18 11:41:12;;;;;;;8.18;4.28;;;;;;;39.23;21.37;99316.66;4375013;32;34844;-82
2022/08/18 11:43:45;;;;;;;6.30;3.72;;;;;;;39.64;21.63;99297.97;4372885;32;33335;-78
2022/08/18 11:46:24;;;;;;;7.82;3.50;;;;;;;40.02;20.47;99305.56;4376712;32;34768;-80
2022/08/18 11:48:59;;;;;;;7.50;3.62;;;;;;;40.64;19.59;99311.09;4361864;32;34537;-79
2022/08/18 11:51:30;;;;;;;6.87;3.60;;;;;;;39.40;20.79;99309.84;4374484;32;34722;-80
2022/08/18 11:54:14;;;;;;;7.35;3.65;;;;;;;38.92;20.96;99312.88;4375605;32;33265;-83
2022/08/18 11:56:43;;;;;;;8.52;4.40;;;;;;;39.85;20.64;99306.13;4374597;32;32737;-81
2022/08/18 11:59:27;;;;;;;6.22;3.90;;;;;;;39.76;20.61;99299.66;4377770;32;34724;-82
2022/08/18 12:02:16;;;;;;;;;;;;;;;39.51;20.61;99309.00;4377801;32;34283;-81
2022/08/18 12:04:48;;;;;;;6.25;3.70;;;;;;;39.84;20.51;99293.59;4378612;32;34117;-82
2022/08/18 12:07:26;;;;;;;6.85;3.97;;;;;;;40.15;20.14;99301.81;4359737;32;34252;-80
2022/08/18 12:10:19;;;;;;;6.90;4.12;;;;;;;40.63;19.55;99295.84;4364174;32;33831;-80
2022/08/18 12:13:06;;;;;;;12.37;5.00;;;;;;;40.12;20.25;99283.09;4364622;32;34342;-79
2022/08/18 12:15:37;;;;;;;10.05;4.55;;;;;;;39.80;20.70;99286.69;4365371;32;33673;-81
2022/08/18 12:18:16;;;;;;;8.10;4.18;;;;;;;39.45;21.17;99282.41;4378433;32;33686;-80
2022/08/18 12:20:56;;;;;;;10.02;4.28;;;;;;;40.48;20.37;99274.47;4368831;32;34067;-83
2022/08/18 12:23:25;;;;;;;8.73;4.25;;;;;;;40.88;19.66;99260.06;4364120;32;34156;-80
2022/08/18 12:25:52;;;;;;;12.37;4.12;;;;;;;40.94;19.37;99260.53;4378192;32;34308;-79
2022/08/18 12:28:20;;;;;;;10.77;4.40;;;;;;;41.20;19.35;99253.56;4377916;32;34845;-81
2022/08/18 12:30:49;;;;;;;6.62;4.00;;;;;;;41.26;19.16;99247.59;4377704;32;34628;-80
2022/08/18 12:33:23;;;;;;;11.65;4.00;;;;;;;40.44;19.63;99250.47;4367907;32;34935;-82
2022/08/18 12:36:04;;;;;;;9.68;4.22;;;;;;;39.63;20.67;99237.47;4374042;32;34365;-80
2022/08/18 12:38:32;;;;;;;7.82;4.07;;;;;;;38.76;20.85;99244.72;4375833;32;34403;-81